Time;durP1;ratioP1;P1;durP2;ratioP2;P2;SDS_P1;SDS_P2;PMS_P1;PMS_P2;Temp;Humidity;BMP_temperature;BMP_pressure;BME280_temperature;BME280_humidity;BME280_pressure;Samples;Min_cycle;Max_cycle;Signal;HPM_P1;HPM_P2
2023/09/06 00:01:42;;;;;;;10.10;6.10;;;;;;;-144.73;100.00;54300.97;5029888;28;20027;-71
2023/09/06 00:04:07;;;;;;;13.02;5.43;;;;;;;-144.73;100.00;54284.56;5025839;28;20029;-71
2023/09/06 00:06:32;;;;;;;14.82;5.93;;;;;;;-144.73;100.00;54294.81;5029780;28;20029;-68
2023/09/06 00:08:58;;;;;;;12.10;5.95;;;;;;;-144.73;100.00;54346.13;5032287;28;20057;-70
2023/09/06 00:11:24;;;;;;;12.07;5.68;;;;;;;-144.73;100.00;54337.91;5067472;28;20020;-71
2023/09/06 00:13:49;;;;;;;10.23;6.20;;;;;;;-144.73;100.00;54329.72;5052742;28;20136;-71
2023/09/06 00:16:16;;;;;;;10.85;5.78;;;;;;;-144.73;100.00;54321.50;5045713;28;20096;-71
2023/09/06 00:18:42;;;;;;;13.20;5.85;;;;;;;-144.73;100.00;54333.81;5037695;28;20496;-71
2023/09/06 00:21:07;;;;;;;12.18;6.15;;;;;;;-144.73;100.00;54317.38;5039681;28;20024;-71
2023/09/06 00:23:33;;;;;;;11.27;6.45;;;;;;;-144.73;100.00;54374.84;5027019;28;20028;-71
2023/09/06 00:25:58;;;;;;;10.23;5.95;;;;;;;-144.73;100.00;54346.13;5040075;28;20032;-71
2023/09/06 00:28:24;;;;;;;14.48;5.53;;;;;;;-144.73;100.00;54337.91;5030163;28;20037;-71
2023/09/06 00:30:50;;;;;;;7.57;5.22;;;;;;;-144.73;100.00;54350.22;5022931;28;20029;-71
2023/09/06 00:33:16;;;;;;;5.97;5.15;;;;;;;-144.73;100.00;54303.03;5016353;28;20029;-71
2023/09/06 00:35:41;;;;;;;9.18;4.90;;;;;;;-144.73;100.00;54296.88;5023340;28;20364;-71
2023/09/06 00:38:07;;;;;;;10.93;5.18;;;;;;;-144.73;100.00;54325.59;5056012;28;20497;-71
2023/09/06 00:40:36;;;;;;;10.40;5.53;;;;;;;-144.73;100.00;54360.50;5041446;28;20029;-71
2023/09/06 00:43:03;;;;;;;15.60;6.75;;;;;;;-144.73;100.00;54407.69;5026435;28;20026;-71
2023/09/06 00:45:37;;;;;;;10.52;6.03;;;;;;;-144.73;100.00;54333.81;5026039;28;20017;-71
2023/09/06 00:48:05;;;;;;;8.63;6.38;;;;;;;-144.73;100.00;54321.50;5023231;28;20419;-71
2023/09/06 00:50:33;;;;;;;11.30;5.20;;;;;;;-144.73;100.00;54346.13;5025611;28;20013;-71
2023/09/06 00:52:59;;;;;;;11.65;5.65;;;;;;;-144.73;100.00;54335.88;5020929;28;20029;-71
2023/09/06 00:55:24;;;;;;;11.93;5.13;;;;;;;-144.73;100.00;54327.66;5030358;28;20036;-71
2023/09/06 00:57:50;;;;;;;6.78;4.63;;;;;;;-144.73;100.00;54333.81;5043244;28;20033;-71
2023/09/06 01:00:17;;;;;;;9.75;4.55;;;;;;;-144.73;100.00;54313.28;5037088;28;20074;-71
2023/09/06 01:02:44;;;;;;;6.63;5.18;;;;;;;-144.73;100.00;54286.59;5024723;28;20535;-71
2023/09/06 01:05:10;;;;;;;8.10;4.85;;;;;;;-144.73;100.00;54346.13;5029719;28;20027;-71
2023/09/06 01:07:38;;;;;;;18.10;5.72;;;;;;;-144.73;100.00;54354.34;5036047;28;20025;-71
2023/09/06 01:10:04;;;;;;;7.50;5.30;;;;;;;-144.73;100.00;54350.22;5062646;28;20016;-71
2023/09/06 01:12:29;;;;;;;7.15;4.45;;;;;;;-144.73;100.00;54282.50;5031422;28;20112;-71
2023/09/06 01:14:55;;;;;;;6.90;4.85;;;;;;;-144.73;100.00;54331.75;5028459;28;20044;-71
2023/09/06 01:17:24;;;;;;;9.65;5.22;;;;;;;-144.73;100.00;54329.72;5021854;28;20539;-71
2023/09/06 01:19:53;;;;;;;7.45;5.82;;;;;;;-144.73;100.00;54370.75;5049763;28;20071;-70
2023/09/06 01:22:29;;;;;;;9.93;5.18;;;;;;;-144.73;100.00;54346.13;5029079;28;20120;-71
2023/09/06 01:24:55;;;;;;;8.63;5.55;;;;;;;-144.73;100.00;54346.13;5026070;28;20032;-70
2023/09/06 01:27:21;;;;;;;9.30;5.68;;;;;;;-144.73;100.00;54370.75;5023247;28;20017;-71
2023/09/06 01:29:46;;;;;;;17.95;5.88;;;;;;;-144.73;100.00;54317.38;5029576;28;20553;-71
2023/09/06 01:32:13;;;;;;;12.25;5.95;;;;;;;-144.73;100.00;54346.13;5030230;28;20020;-69
2023/09/06 01:34:38;;;;;;;5.53;4.43;;;;;;;-144.73;100.00;54362.53;5058929;28;20111;-71
2023/09/06 01:37:04;;;;;;;8.13;5.47;;;;;;;-144.73;100.00;54317.38;5052579;28;20136;-70
2023/09/06 01:39:29;;;;;;;6.88;4.95;;;;;;;-144.73;100.00;54342.03;5024357;28;20071;-71
2023/09/06 01:41:54;;;;;;;10.45;5.70;;;;;;;-144.73;100.00;54362.53;5048768;28;20020;-71
2023/09/06 01:44:20;;;;;;;10.70;5.65;;;;;;;-144.73;100.00;54383.06;5023472;28;20029;-69
2023/09/06 01:46:45;;;;;;;7.97;5.22;;;;;;;-144.73;100.00;54358.44;5055948;28;20017;-71
2023/09/06 01:49:11;;;;;;;10.20;5.35;;;;;;;-144.73;100.00;54350.22;5025511;28;20040;-70
2023/09/06 01:51:36;;;;;;;8.30;5.28;;;;;;;-144.73;100.00;54350.22;5047713;28;20035;-71
2023/09/06 01:54:06;;;;;;;8.98;5.47;;;;;;;-144.73;100.00;54378.97;5044764;28;20040;-71
2023/09/06 01:56:31;;;;;;;11.32;5.50;;;;;;;-144.73;100.00;54339.97;5033101;28;20039;-71
2023/09/06 01:58:56;;;;;;;8.65;5.55;;;;;;;-144.73;100.00;54346.13;5027110;28;20116;-71
2023/09/06 02:01:22;;;;;;;11.63;5.82;;;;;;;-144.73;100.00;54356.38;5056676;28;20021;-70
2023/09/06 02:03:47;;;;;;;7.63;5.20;;;;;;;-144.73;100.00;54346.13;5044939;28;20029;-71
2023/09/06 02:06:13;;;;;;;7.28;4.75;;;;;;;-144.73;100.00;54337.91;5030368;28;20079;-71
2023/09/06 02:08:40;;;;;;;11.27;5.90;;;;;;;-144.73;100.00;54329.72;5032018;28;20029;-71
2023/09/06 02:11:06;;;;;;;8.30;5.43;;;;;;;-144.73;100.00;54374.84;5051310;28;20022;-71
2023/09/06 02:13:32;;;;;;;13.20;6.38;;;;;;;-144.73;100.00;54368.69;5038309;28;20068;-70
2023/09/06 02:15:59;;;;;;;8.70;5.38;;;;;;;-144.73;100.00;54305.06;5039091;28;20486;-70
2023/09/06 02:18:26;;;;;;;8.38;5.38;;;;;;;-144.73;100.00;54366.66;5039326;28;20083;-71
2023/09/06 02:20:54;;;;;;;7.38;5.47;;;;;;;-144.73;100.00;54370.75;5051982;28;20021;-70
2023/09/06 02:23:19;;;;;;;8.65;5.90;;;;;;;-144.73;100.00;54362.53;5057735;28;20029;-71
2023/09/06 02:25:44;;;;;;;5.93;4.88;;;;;;;-144.73;100.00;54315.34;5025847;28;20033;-71
2023/09/06 02:28:10;;;;;;;8.52;5.38;;;;;;;-144.73;100.00;54329.72;5031222;28;20032;-70
2023/09/06 02:30:38;;;;;;;9.45;5.85;;;;;;;-144.73;100.00;54346.13;5039364;28;20077;-71
2023/09/06 02:33:04;;;;;;;6.43;5.22;;;;;;;-144.73;100.00;54348.19;5023766;28;20033;-71
2023/09/06 02:35:30;;;;;;;7.38;4.93;;;;;;;-144.73;100.00;54350.22;5021099;28;20033;-71
2023/09/06 02:37:56;;;;;;;9.05;5.38;;;;;;;-144.73;100.00;54374.84;5025081;28;20044;-70
2023/09/06 02:40:22;;;;;;;6.97;4.30;;;;;;;-144.73;100.00;54346.13;5054270;28;20095;-71
2023/09/06 02:42:51;;;;;;;6.72;4.50;;;;;;;-144.73;100.00;54354.34;5028134;28;20084;-66
2023/09/06 02:45:17;;;;;;;11.48;5.82;;;;;;;-144.73;100.00;54366.66;5027515;28;20021;-70
2023/09/06 02:47:48;;;;;;;7.78;5.70;;;;;;;-144.73;100.00;54352.28;5033499;28;20060;-71
2023/09/06 02:50:14;;;;;;;7.27;5.93;;;;;;;-144.73;100.00;54333.81;5030068;28;20025;-69
2023/09/06 02:52:44;;;;;;;10.25;5.40;;;;;;;-144.73;100.00;54358.44;5047024;28;20267;-70
2023/09/06 02:55:13;;;;;;;12.20;5.63;;;;;;;-144.73;100.00;54383.06;5033290;28;20087;-70
2023/09/06 02:57:39;;;;;;;8.43;5.25;;;;;;;-144.73;100.00;54333.81;5032917;28;20119;-70
2023/09/06 03:00:18;;;;;;;12.57;5.32;;;;;;;-144.73;100.00;54323.53;5050270;28;20052;-70
2023/09/06 03:02:44;;;;;;;9.52;5.32;;;;;;;-144.73;100.00;54354.34;5040807;28;20031;-70
2023/09/06 03:05:09;;;;;;;7.60;5.45;;;;;;;-144.73;100.00;54350.22;5021269;28;20037;-70
2023/09/06 03:07:35;;;;;;;12.15;5.68;;;;;;;-144.73;100.00;54374.84;5023351;28;20009;-70
2023/09/06 03:10:00;;;;;;;18.88;4.90;;;;;;;-144.73;100.00;54350.22;5028881;28;20106;-71
2023/09/06 03:12:25;;;;;;;5.93;5.15;;;;;;;-144.73;100.00;54337.91;5042918;28;20017;-71
2023/09/06 03:14:53;;;;;;;9.45;5.57;;;;;;;-144.73;100.00;54317.38;5058842;28;20098;-70
2023/09/06 03:17:22;;;;;;;7.70;5.60;;;;;;;-144.73;100.00;54333.81;5028170;28;20057;-70
2023/09/06 03:19:53;;;;;;;10.13;6.40;;;;;;;-144.73;100.00;54305.06;5033532;28;20082;-70
2023/09/06 03:22:22;;;;;;;9.73;6.68;;;;;;;-144.73;100.00;54385.13;5023807;28;20160;-71
2023/09/06 03:24:48;;;;;;;10.27;6.45;;;;;;;-144.73;100.00;54329.72;5053501;28;20036;-71
2023/09/06 03:27:16;;;;;;;10.63;6.13;;;;;;;-144.73;100.00;54313.28;5031287;28;20016;-71
2023/09/06 03:29:43;;;;;;;8.20;6.43;;;;;;;-144.73;100.00;54350.22;5050946;28;20108;-70
2023/09/06 03:32:09;;;;;;;8.30;6.35;;;;;;;-144.73;100.00;54321.50;5049217;28;20048;-71
2023/09/06 03:34:35;;;;;;;12.00;4.82;;;;;;;-144.73;100.00;54362.53;5033058;28;20041;-71
2023/09/06 03:37:04;;;;;;;10.20;5.38;;;;;;;-144.73;100.00;54393.34;5027365;28;20029;-71
2023/09/06 03:39:31;;;;;;;9.05;5.53;;;;;;;-144.73;100.00;54370.75;5041873;28;20388;-70
2023/09/06 03:42:00;;;;;;;8.57;5.93;;;;;;;-144.73;100.00;54333.81;5028066;28;20171;-70
2023/09/06 03:44:27;;;;;;;13.75;6.78;;;;;;;-144.73;100.00;54407.69;5024720;28;20029;-71
2023/09/06 03:46:56;;;;;;;17.33;6.18;;;;;;;-144.73;100.00;54366.66;5030854;28;20029;-70
2023/09/06 03:49:23;;;;;;;9.70;5.30;;;;;;;-144.73;100.00;54362.53;5030261;28;20048;-70
2023/09/06 03:51:50;;;;;;;6.53;5.28;;;;;;;-144.73;100.00;54409.75;5032285;28;20109;-70
2023/09/06 03:54:17;;;;;;;8.25;6.25;;;;;;;-144.73;100.00;54362.53;5027880;28;20029;-71
2023/09/06 03:56:43;;;;;;;6.25;5.30;;;;;;;-144.73;100.00;54383.06;5045610;28;20030;-72
2023/09/06 03:59:09;;;;;;;8.15;5.55;;;;;;;-144.73;100.00;54337.91;5048851;28;20040;-70
2023/09/06 04:01:34;;;;;;;8.15;4.95;;;;;;;-144.73;100.00;54362.53;5035502;28;20033;-71
2023/09/06 04:04:01;;;;;;;7.18;5.00;;;;;;;-144.73;100.00;54352.28;5024897;28;20044;-71
2023/09/06 04:06:29;;;;;;;13.52;5.05;;;;;;;-144.73;100.00;54370.75;5033627;28;20009;-71
2023/09/06 04:08:55;;;;;;;11.82;4.97;;;;;;;-144.73;100.00;54391.28;5033582;28;20090;-71
2023/09/06 04:11:20;;;;;;;14.80;6.05;;;;;;;-144.73;100.00;54356.38;5045577;28;20016;-71
2023/09/06 04:13:46;;;;;;;7.82;4.88;;;;;;;-144.73;100.00;54374.84;5032383;28;20037;-71
2023/09/06 04:16:11;;;;;;;11.57;4.93;;;;;;;-144.73;100.00;54358.44;5023565;28;20025;-71
2023/09/06 04:18:37;;;;;;;8.55;4.78;;;;;;;-144.73;100.00;54383.06;5030653;28;20032;-71
2023/09/06 04:21:08;;;;;;;8.63;5.60;;;;;;;-144.73;100.00;54358.44;5047461;28;20025;-71
2023/09/06 04:23:33;;;;;;;7.80;5.72;;;;;;;-144.73;100.00;54387.19;5030636;28;20029;-71
2023/09/06 04:26:00;;;;;;;6.55;4.97;;;;;;;-144.73;100.00;54368.69;5025322;28;20080;-71
2023/09/06 04:28:25;;;;;;;7.50;4.68;;;;;;;-144.73;100.00;54407.69;5060516;28;20037;-71
2023/09/06 04:30:52;;;;;;;7.75;5.80;;;;;;;-144.73;100.00;54397.44;5047796;28;20374;-71
2023/09/06 04:33:17;;;;;;;9.02;5.63;;;;;;;-144.73;100.00;54346.13;5048829;28;20104;-71
2023/09/06 04:35:45;;;;;;;9.38;5.38;;;;;;;-144.73;100.00;54358.44;5025039;28;20076;-71
2023/09/06 04:38:12;;;;;;;8.23;5.68;;;;;;;-144.73;100.00;54409.75;5025951;28;20065;-71
2023/09/06 04:40:38;;;;;;;11.98;6.22;;;;;;;-144.73;100.00;54366.66;5025275;28;20017;-71
2023/09/06 04:43:15;;;;;;;8.02;4.53;;;;;;;-144.73;100.00;54395.38;5047268;28;20502;-72
2023/09/06 04:45:40;;;;;;;9.10;5.35;;;;;;;-144.73;100.00;54366.66;5033739;28;20071;-72
2023/09/06 04:48:11;;;;;;;8.88;5.13;;;;;;;-144.73;100.00;54362.53;5034850;28;20029;-71
2023/09/06 04:50:38;;;;;;;12.38;6.13;;;;;;;-144.73;100.00;54378.97;5032101;28;20045;-72
2023/09/06 04:53:04;;;;;;;9.73;5.90;;;;;;;-144.73;100.00;54407.69;5030026;28;20041;-72
2023/09/06 04:55:33;;;;;;;12.93;5.53;;;;;;;-144.73;100.00;54362.53;5032358;28;20020;-72
2023/09/06 04:58:00;;;;;;;12.00;6.85;;;;;;;-144.73;100.00;54366.66;5022977;28;20033;-71
2023/09/06 05:00:30;;;;;;;8.98;6.10;;;;;;;-144.73;100.00;54325.59;5042092;28;20018;-71
2023/09/06 05:02:57;;;;;;;8.50;5.72;;;;;;;-144.73;100.00;54366.66;5029208;28;20057;-72
2023/09/06 05:05:23;;;;;;;6.88;5.68;;;;;;;-144.73;100.00;54350.22;5042964;28;20578;-72
2023/09/06 05:07:49;;;;;;;15.70;7.20;;;;;;;-144.73;100.00;54358.44;5025084;28;20044;-72
2023/09/06 05:10:18;;;;;;;7.95;5.90;;;;;;;-144.73;100.00;54366.66;5028470;28;20021;-72
2023/09/06 05:12:45;;;;;;;11.07;5.60;;;;;;;-144.73;100.00;54360.50;5031468;28;20041;-71
2023/09/06 05:15:12;;;;;;;14.88;6.85;;;;;;;-144.73;100.00;54362.53;5029017;28;20021;-70
2023/09/06 05:17:41;;;;;;;15.45;7.47;;;;;;;-144.73;100.00;54383.06;5032723;28;20143;-72
2023/09/06 05:20:35;;;;;;;21.30;6.88;;;;;;;-144.73;100.00;54362.53;5027659;28;20048;-71
2023/09/06 05:23:05;;;;;;;26.80;7.35;;;;;;;-144.73;100.00;54383.06;5031594;28;20040;-72
2023/09/06 05:25:31;;;;;;;23.08;6.53;;;;;;;-144.73;100.00;54346.13;5021884;28;20028;-71
2023/09/06 05:28:00;;;;;;;19.05;6.70;;;;;;;-144.73;100.00;54383.06;5032808;28;20037;-71
2023/09/06 05:30:26;;;;;;;21.45;7.38;;;;;;;-144.73;100.00;54383.06;5028207;28;20032;-72
2023/09/06 05:32:53;;;;;;;23.10;6.60;;;;;;;-144.73;100.00;54378.97;5049865;28;20040;-72
2023/09/06 05:35:19;;;;;;;21.10;6.40;;;;;;;-144.73;100.00;54391.28;5044930;28;20072;-72
2023/09/06 05:37:44;;;;;;;23.45;8.18;;;;;;;-144.73;100.00;54387.19;5028512;28;20597;-71
2023/09/06 05:40:12;;;;;;;61.97;8.65;;;;;;;-144.73;100.00;54378.97;5030835;28;20047;-72
2023/09/06 05:42:38;;;;;;;131.27;12.40;;;;;;;-144.73;100.00;54387.19;5028560;28;20021;-71
2023/09/06 05:45:04;;;;;;;393.83;22.10;;;;;;;-144.73;100.00;54399.50;5030377;28;20045;-71
2023/09/06 05:47:30;;;;;;;345.42;20.60;;;;;;;-144.73;100.00;54362.53;5020820;28;20021;-73
2023/09/06 05:49:58;;;;;;;127.45;12.00;;;;;;;-144.73;100.00;54370.75;5028955;28;20020;-74
2023/09/06 05:52:23;;;;;;;68.35;9.38;;;;;;;-144.73;100.00;54378.97;5045831;28;20021;-74
2023/09/06 05:54:49;;;;;;;66.85;9.30;;;;;;;-144.73;100.00;54362.53;5051365;28;20013;-72
2023/09/06 05:57:14;;;;;;;34.83;8.65;;;;;;;-144.73;100.00;54395.38;5034803;28;20079;-71
2023/09/06 05:59:40;;;;;;;36.35;8.50;;;;;;;-144.73;100.00;54385.13;5051661;28;20518;-72
2023/09/06 06:02:07;;;;;;;31.92;7.38;;;;;;;-144.73;100.00;54356.38;5034772;28;20075;-72
2023/09/06 06:04:32;;;;;;;14.40;7.00;;;;;;;-144.73;100.00;54366.66;5033880;28;20183;-72
2023/09/06 06:06:57;;;;;;;20.10;7.13;;;;;;;-144.73;100.00;54370.75;5034276;28;20104;-72
2023/09/06 06:09:24;;;;;;;23.40;7.47;;;;;;;-144.73;100.00;54333.81;5034101;28;20055;-72
2023/09/06 06:11:53;;;;;;;10.25;6.30;;;;;;;-144.73;100.00;54370.75;5034295;28;20029;-72
2023/09/06 06:14:19;;;;;;;20.05;6.65;;;;;;;-144.73;100.00;54415.91;5051602;28;20044;-72
2023/09/06 06:16:44;;;;;;;11.73;6.43;;;;;;;-144.73;100.00;54378.97;5034315;28;20021;-71
2023/09/06 06:19:09;;;;;;;10.35;6.35;;;;;;;-144.73;100.00;54399.50;5033740;28;20029;-72
2023/09/06 06:21:35;;;;;;;12.63;5.57;;;;;;;-144.73;100.00;54420.00;5034471;28;20490;-71
2023/09/06 06:24:01;;;;;;;14.07;5.65;;;;;;;-144.73;100.00;54370.75;5051205;28;20116;-72
2023/09/06 06:26:27;;;;;;;13.02;6.32;;;;;;;-144.73;100.00;54358.44;5034264;28;20037;-72
2023/09/06 06:28:53;;;;;;;15.27;6.03;;;;;;;-144.73;100.00;54372.81;5033564;28;20091;-71
2023/09/06 06:31:19;;;;;;;9.00;5.55;;;;;;;-144.73;100.00;54383.06;5034025;28;20103;-72
2023/09/06 06:33:44;;;;;;;61.60;7.72;;;;;;;-144.73;100.00;54399.50;5033921;28;20112;-72
2023/09/06 06:36:10;;;;;;;32.97;6.88;;;;;;;-144.73;100.00;54358.44;5034182;28;20021;-72
2023/09/06 06:38:35;;;;;;;98.90;8.63;;;;;;;-144.73;100.00;54362.53;5033906;28;20043;-72
2023/09/06 06:41:01;;;;;;;95.70;11.07;;;;;;;-144.73;100.00;54350.22;5034280;28;20029;-72
2023/09/06 06:43:27;;;;;;;69.13;9.60;;;;;;;-144.73;100.00;54415.91;5033433;28;20060;-72
2023/09/06 06:45:56;;;;;;;62.03;8.23;;;;;;;-144.73;100.00;54374.84;5034044;28;20021;-72
2023/09/06 06:48:21;;;;;;;53.40;9.05;;;;;;;-144.73;100.00;54366.66;5035109;28;20108;-72
2023/09/06 06:50:47;;;;;;;41.13;7.00;;;;;;;-144.73;100.00;54364.59;5037907;28;20116;-72
2023/09/06 06:53:13;;;;;;;32.30;6.28;;;;;;;-144.73;100.00;54366.66;5037308;28;20033;-72
2023/09/06 06:55:40;;;;;;;35.03;6.35;;;;;;;-144.73;100.00;54411.81;5055812;28;20051;-72
2023/09/06 06:58:07;;;;;;;32.65;9.77;;;;;;;-144.73;100.00;54350.22;5037252;28;20551;-72
2023/09/06 07:00:34;;;;;;;38.53;13.00;;;;;;;-144.73;100.00;54348.19;5038042;28;20059;-72
2023/09/06 07:03:00;;;;;;;19.60;5.35;;;;;;;-144.73;100.00;54411.81;5037235;28;20079;-72
2023/09/06 07:05:25;;;;;;;17.40;5.60;;;;;;;-144.73;100.00;54350.22;5037954;28;20028;-72
2023/09/06 07:07:51;;;;;;;20.17;6.40;;;;;;;-144.73;100.00;54358.44;5055490;28;20036;-72
2023/09/06 07:10:17;;;;;;;11.80;4.90;;;;;;;-144.73;100.00;54391.28;5037788;28;20154;-72
2023/09/06 07:12:43;;;;;;;10.25;4.60;;;;;;;-144.73;100.00;54383.06;5055197;28;20190;-72
2023/09/06 07:15:10;;;;;;;16.10;4.57;;;;;;;-144.73;100.00;54354.34;5055657;28;20142;-72
2023/09/06 07:17:36;;;;;;;8.07;4.22;;;;;;;-144.73;100.00;54370.75;5035069;28;20043;-72
2023/09/06 07:20:02;;;;;;;10.27;4.18;;;;;;;-144.73;100.00;54348.19;5035238;28;20476;-73
2023/09/06 07:22:27;;;;;;;21.85;4.65;;;;;;;-144.73;100.00;54370.75;5034840;28;20021;-71
2023/09/06 07:24:53;;;;;;;15.63;4.70;;;;;;;-144.73;100.00;54350.22;5034966;28;20025;-71
2023/09/06 07:27:18;;;;;;;10.70;4.20;;;;;;;-144.73;100.00;54333.81;5053077;28;20035;-72
2023/09/06 07:29:43;;;;;;;6.95;3.70;;;;;;;-144.73;100.00;54346.13;5034491;28;20087;-72
2023/09/06 07:32:09;;;;;;;15.52;4.32;;;;;;;-144.73;100.00;54368.69;5035958;28;20086;-72
2023/09/06 07:34:34;;;;;;;5.80;3.95;;;;;;;-144.73;100.00;54383.06;5052328;28;20032;-72
2023/09/06 07:36:59;;;;;;;11.98;3.75;;;;;;;-144.73;100.00;54325.59;5053287;28;20040;-72
2023/09/06 07:39:25;;;;;;;13.57;3.60;;;;;;;-144.73;100.00;54362.53;5034326;28;20113;-72
2023/09/06 07:41:52;;;;;;;12.18;3.75;;;;;;;-144.73;100.00;54337.91;5052647;28;20036;-72
2023/09/06 07:44:18;;;;;;;11.55;5.20;;;;;;;-144.73;100.00;54346.13;5033802;28;20041;-72
2023/09/06 07:46:48;;;;;;;6.93;3.95;;;;;;;-144.73;100.00;54329.72;5014644;28;20030;-71
2023/09/06 07:49:15;;;;;;;24.83;4.32;;;;;;;-144.73;100.00;54344.06;5014751;28;20038;-72
2023/09/06 07:51:40;;;;;;;11.60;3.88;;;;;;;-144.73;100.00;54325.59;5014439;28;20028;-72
2023/09/06 07:54:06;;;;;;;8.18;4.05;;;;;;;-144.73;100.00;54290.72;5014353;28;20029;-70
2023/09/06 07:56:31;;;;;;;7.35;3.88;;;;;;;-144.73;100.00;54333.81;5014943;28;20021;-72
2023/09/06 07:58:56;;;;;;;13.25;3.83;;;;;;;-144.73;100.00;54305.06;5014271;28;20061;-72
2023/09/06 08:01:22;;;;;;;7.90;3.55;;;;;;;-144.73;100.00;54309.19;5031746;28;20082;-70
2023/09/06 08:03:47;;;;;;;15.32;3.60;;;;;;;-144.73;100.00;54305.06;5013830;28;20518;-72
2023/09/06 08:06:13;;;;;;;10.82;3.70;;;;;;;-144.73;100.00;54333.81;5014820;28;20029;-71
2023/09/06 08:08:39;;;;;;;13.85;4.05;;;;;;;-144.73;100.00;54296.88;5014599;28;20169;-71
2023/09/06 08:11:05;;;;;;;10.35;4.15;;;;;;;-144.73;100.00;54300.97;5014585;28;20056;-72
2023/09/06 08:13:31;;;;;;;9.75;3.55;;;;;;;-144.73;100.00;54329.72;5032268;28;20036;-71
2023/09/06 08:15:57;;;;;;;17.63;3.25;;;;;;;-144.73;100.00;54313.28;5014595;28;20108;-72
2023/09/06 08:18:22;;;;;;;10.63;3.45;;;;;;;-144.73;100.00;54305.06;5030207;28;20037;-72
2023/09/06 08:20:47;;;;;;;4.65;3.25;;;;;;;-144.73;100.00;54333.81;5015016;28;20021;-72
2023/09/06 08:23:13;;;;;;;15.30;4.13;;;;;;;-144.73;100.00;54259.91;5013732;28;20041;-72
2023/09/06 08:25:38;;;;;;;8.40;3.22;;;;;;;-144.73;100.00;54317.38;5031725;28;20037;-69
2023/09/06 08:28:04;;;;;;;9.55;3.38;;;;;;;-144.73;100.00;54309.19;5013997;28;20045;-72
2023/09/06 08:30:29;;;;;;;8.68;3.72;;;;;;;-144.73;100.00;54335.88;5031443;28;20120;-72
2023/09/06 08:32:55;;;;;;;14.82;3.88;;;;;;;-144.73;100.00;54280.44;5014325;28;20121;-71
2023/09/06 08:35:23;;;;;;;6.03;2.85;;;;;;;-144.73;100.00;54278.41;5014318;28;20017;-72
2023/09/06 08:37:48;;;;;;;17.20;3.20;;;;;;;-144.73;100.00;54276.34;5013380;28;20051;-72
2023/09/06 08:40:15;;;;;;;6.75;2.90;;;;;;;-144.73;100.00;54296.88;5014472;28;20108;-72
2023/09/06 08:42:44;;;;;;;9.77;3.15;;;;;;;-144.73;100.00;54259.91;5013658;28;20032;-72
2023/09/06 08:45:09;;;;;;;11.98;2.80;;;;;;;-144.73;100.00;54305.06;5013751;28;20029;-72
2023/09/06 08:47:41;;;;;;;9.68;2.38;;;;;;;-144.73;100.00;54261.97;5031447;28;20022;-72
2023/09/06 08:50:09;;;;;;;12.27;2.72;;;;;;;-144.73;98.43;54288.66;5014505;28;20083;-72
2023/09/06 08:52:41;;;;;;;4.28;2.50;;;;;;;-144.73;92.79;54243.50;5030923;28;20022;-72
2023/09/06 08:55:07;;;;;;;4.72;2.53;;;;;;;-144.73;92.25;54280.44;5013747;28;20044;-70
2023/09/06 08:57:33;;;;;;;8.30;2.33;;;;;;;-144.73;89.55;54288.66;5031394;28;20025;-72
2023/09/06 08:59:59;;;;;;;7.38;2.33;;;;;;;-144.73;88.24;54284.56;5031387;28;20036;-72
2023/09/06 09:02:24;;;;;;;8.93;2.00;;;;;;;-144.73;87.23;54292.75;5013549;28;20056;-72
2023/09/06 09:04:50;;;;;;;7.15;2.30;;;;;;;-144.73;83.61;54251.72;5030101;28;20048;-72
2023/09/06 09:07:18;;;;;;;11.40;2.60;;;;;;;-144.73;81.04;54280.44;5030138;28;20034;-72
2023/09/06 09:09:59;;;;;;;6.93;2.13;;;;;;;-144.73;79.23;54294.81;5013253;28;20060;-72
2023/09/06 09:12:26;;;;;;;9.40;2.60;;;;;;;-144.73;79.98;54290.72;5030190;28;20029;-72
2023/09/06 09:14:54;;;;;;;9.25;2.35;;;;;;;-144.73;79.86;54243.50;5013945;28;20029;-72
2023/09/06 09:17:24;;;;;;;9.32;2.15;;;;;;;-144.73;80.24;54239.41;5030062;28;20092;-72
2023/09/06 09:20:00;;;;;;;4.82;2.15;;;;;;;-144.73;80.45;54257.88;5046101;28;20033;-72
2023/09/06 09:22:26;;;;;;;7.05;2.20;;;;;;;-144.73;77.83;54268.13;5030664;28;20032;-72
2023/09/06 09:25:00;;;;;;;7.38;2.25;;;;;;;-144.73;76.64;54278.41;5013375;28;20112;-73
2023/09/06 09:27:27;;;;;;;6.07;2.20;;;;;;;-144.73;75.60;54227.09;5030427;28;20037;-73
2023/09/06 09:29:54;;;;;;;2.55;2.00;;;;;;;-144.73;74.13;54247.59;5030874;28;20036;-73
2023/09/06 09:32:26;;;;;;;5.90;2.67;;;;;;;-144.73;71.89;54202.44;5064875;28;20422;-71
2023/09/06 09:34:52;;;;;;;7.18;1.85;;;;;;;-144.73;72.38;54227.09;5006956;28;20433;-71
2023/09/06 09:37:19;;;;;;;4.50;1.90;;;;;;;-144.73;69.31;54229.13;5007388;28;20049;-72
2023/09/06 09:39:44;;;;;;;10.48;1.83;;;;;;;-144.73;68.04;54255.81;5026128;28;20034;-72
2023/09/06 09:42:10;;;;;;;3.25;1.58;;;;;;;-144.73;67.82;54231.19;5026051;28;20014;-72
2023/09/06 09:44:36;;;;;;;5.38;1.80;;;;;;;-144.73;68.30;54257.88;5043333;28;20567;-71
2023/09/06 09:47:10;;;;;;;19.70;3.45;;;;;;;-144.73;69.53;54280.44;5047025;28;20057;-72
2023/09/06 09:49:37;;;;;;;7.72;2.13;;;;;;;-144.73;64.92;54259.91;5045267;28;20033;-72
2023/09/06 09:52:04;;;;;;;2.50;1.80;;;;;;;-144.73;63.53;54243.50;5045596;28;20035;-71
2023/09/06 09:54:33;;;;;;;4.53;2.10;;;;;;;-144.73;63.04;54268.13;5045379;28;20029;-70
2023/09/06 09:57:07;;;;;;;2.03;1.75;;;;;;;-144.73;63.51;54239.41;5047170;28;20025;-72
2023/09/06 09:59:33;;;;;;;5.93;1.90;;;;;;;-144.73;60.20;54214.78;5045365;28;20070;-73
2023/09/06 10:01:59;;;;;;;7.18;2.28;;;;;;;-144.73;61.32;54239.41;5045252;28;20090;-71
2023/09/06 10:04:27;;;;;;;3.25;1.60;;;;;;;-144.73;57.82;54231.19;5045538;28;20495;-70
2023/09/06 10:06:55;;;;;;;5.47;2.08;;;;;;;-144.73;58.26;54218.88;5046016;28;20091;-70
2023/09/06 10:09:21;;;;;;;4.65;1.80;;;;;;;-144.73;55.86;54198.34;5046238;28;20044;-71
2023/09/06 10:11:49;;;;;;;3.72;1.90;;;;;;;-144.73;53.44;54214.78;5045559;28;20034;-70
2023/09/06 10:14:16;;;;;;;4.88;2.00;;;;;;;-144.73;54.24;54206.56;5045330;28;20041;-71
2023/09/06 10:16:42;;;;;;;6.80;1.73;;;;;;;-144.73;51.14;54198.34;5046050;28;20022;-72
2023/09/06 10:19:08;;;;;;;1.90;1.55;;;;;;;-144.73;54.11;54214.78;5045526;28;20041;-72
2023/09/06 10:21:34;;;;;;;3.28;1.73;;;;;;;-144.73;54.87;54220.94;5045537;28;20021;-71
2023/09/06 10:24:00;;;;;;;3.15;2.00;;;;;;;-144.73;51.91;54216.81;5044851;28;20068;-71
2023/09/06 10:26:27;;;;;;;7.38;2.10;;;;;;;-144.73;51.26;54206.56;5046692;28;20029;-71
2023/09/06 10:28:57;;;;;;;5.13;1.60;;;;;;;-144.73;52.36;54218.88;5045342;28;20034;-71
2023/09/06 10:31:33;;;;;;;12.15;1.92;;;;;;;-144.73;51.88;54175.78;5045929;28;20039;-70
2023/09/06 10:33:59;;;;;;;10.77;1.90;;;;;;;-144.73;53.75;54177.81;5044530;28;20041;-71
2023/09/06 10:36:27;;;;;;;10.40;1.85;;;;;;;-144.73;51.38;54222.97;5046743;28;20072;-70
2023/09/06 10:38:52;;;;;;;4.78;1.40;;;;;;;-144.73;47.63;54181.94;5044369;28;20037;-71
2023/09/06 10:41:19;;;;;;;3.80;1.48;;;;;;;-144.73;48.27;54181.94;5044644;28;20057;-70
2023/09/06 10:44:01;;;;;;;5.00;1.67;;;;;;;-144.73;48.87;54206.56;5031938;28;20029;-71
2023/09/06 10:46:31;;;;;;;3.60;1.55;;;;;;;-144.73;49.15;54169.63;5031656;28;20118;-72
2023/09/06 10:49:16;;;;;;;1.90;1.40;;;;;;;-144.73;49.44;54190.13;5031046;28;20041;-71
2023/09/06 10:51:55;;;;;;;4.75;1.40;;;;;;;-144.73;47.73;54227.09;5031418;28;20025;-71
2023/09/06 10:54:25;;;;;;;4.30;1.10;;;;;;;-144.73;45.21;54206.56;5032294;28;20049;-71
2023/09/06 10:56:57;;;;;;;5.80;1.38;;;;;;;-144.73;45.69;54214.78;5031042;28;20028;-71
2023/09/06 10:59:22;;;;;;;2.00;1.67;;;;;;;-144.73;47.23;54218.88;5031906;28;20030;-71
2023/09/06 11:02:26;;;;;;;2.63;1.70;;;;;;;-144.73;47.92;54206.56;5030960;28;20017;-70
2023/09/06 11:05:09;;;;;;;5.85;1.65;;;;;;;-144.73;47.31;54186.03;4974107;28;20082;-70
2023/09/06 11:07:40;;;;;;;2.20;1.40;;;;;;;-144.73;46.55;54198.34;4974187;28;20125;-70